sensor_id;sensor_type;location;lat;lon;timestamp;P1;durP1;ratioP1;P2;durP2;ratioP2
23658;SDS011;12006;42.666;23.326;2023-04-15T00:02:14;4.27;;;3.27;;
23658;SDS011;12006;42.666;23.326;2023-04-15T00:04:46;6.20;;;3.53;;
23658;SDS011;12006;42.666;23.326;2023-04-15T00:07:12;4.50;;;3.37;;
23658;SDS011;12006;42.666;23.326;2023-04-15T00:09:39;4.10;;;3.23;;
23658;SDS011;12006;42.666;23.326;2023-04-15T00:12:05;6.60;;;3.53;;
23658;SDS011;12006;42.666;23.326;2023-04-15T00:14:33;7.47;;;4.23;;
23658;SDS011;12006;42.666;23.326;2023-04-15T00:17:00;6.50;;;4.47;;
23658;SDS011;12006;42.666;23.326;2023-04-15T00:19:26;6.77;;;4.40;;
23658;SDS011;12006;42.666;23.326;2023-04-15T00:21:51;5.33;;;4.30;;
23658;SDS011;12006;42.666;23.326;2023-04-15T00:24:16;6.63;;;3.97;;
23658;SDS011;12006;42.666;23.326;2023-04-15T00:26:42;6.43;;;3.83;;
23658;SDS011;12006;42.666;23.326;2023-04-15T00:29:07;6.27;;;4.07;;
23658;SDS011;12006;42.666;23.326;2023-04-15T00:31:33;5.17;;;3.80;;
23658;SDS011;12006;42.666;23.326;2023-04-15T00:33:58;4.67;;;3.80;;
23658;SDS011;12006;42.666;23.326;2023-04-15T00:36:24;5.73;;;3.90;;
23658;SDS011;12006;42.666;23.326;2023-04-15T00:38:50;3.90;;;2.93;;
23658;SDS011;12006;42.666;23.326;2023-04-15T00:41:15;6.07;;;3.70;;
23658;SDS011;12006;42.666;23.326;2023-04-15T00:43:43;6.40;;;3.60;;
23658;SDS011;12006;42.666;23.326;2023-04-15T00:46:08;5.87;;;3.60;;
23658;SDS011;12006;42.666;23.326;2023-04-15T00:48:36;4.93;;;3.30;;
23658;SDS011;12006;42.666;23.326;2023-04-15T00:51:02;6.10;;;4.00;;
23658;SDS011;12006;42.666;23.326;2023-04-15T00:53:28;4.20;;;3.17;;
23658;SDS011;12006;42.666;23.326;2023-04-15T00:55:53;6.00;;;3.73;;
23658;SDS011;12006;42.666;23.326;2023-04-15T00:58:20;6.17;;;4.00;;
23658;SDS011;12006;42.666;23.326;2023-04-15T01:00:45;5.77;;;3.67;;
23658;SDS011;12006;42.666;23.326;2023-04-15T01:03:11;5.37;;;3.87;;
23658;SDS011;12006;42.666;23.326;2023-04-15T01:05:37;6.70;;;4.03;;
23658;SDS011;12006;42.666;23.326;2023-04-15T01:08:03;5.33;;;4.13;;
23658;SDS011;12006;42.666;23.326;2023-04-15T01:10:30;4.53;;;3.87;;
23658;SDS011;12006;42.666;23.326;2023-04-15T01:12:55;5.67;;;3.80;;
23658;SDS011;12006;42.666;23.326;2023-04-15T01:15:22;4.23;;;3.73;;
23658;SDS011;12006;42.666;23.326;2023-04-15T01:17:48;4.07;;;3.37;;
23658;SDS011;12006;42.666;23.326;2023-04-15T01:20:14;5.97;;;4.00;;
23658;SDS011;12006;42.666;23.326;2023-04-15T01:22:40;6.43;;;3.97;;
23658;SDS011;12006;42.666;23.326;2023-04-15T01:25:08;5.27;;;4.07;;
23658;SDS011;12006;42.666;23.326;2023-04-15T01:27:39;5.73;;;3.80;;
23658;SDS011;12006;42.666;23.326;2023-04-15T01:30:07;5.33;;;4.07;;
23658;SDS011;12006;42.666;23.326;2023-04-15T01:32:33;6.70;;;4.07;;
23658;SDS011;12006;42.666;23.326;2023-04-15T01:34:58;5.93;;;4.00;;
23658;SDS011;12006;42.666;23.326;2023-04-15T01:37:24;5.50;;;3.90;;
23658;SDS011;12006;42.666;23.326;2023-04-15T01:39:50;7.23;;;4.70;;
23658;SDS011;12006;42.666;23.326;2023-04-15T01:42:16;6.53;;;4.50;;
23658;SDS011;12006;42.666;23.326;2023-04-15T01:44:41;6.10;;;4.17;;
23658;SDS011;12006;42.666;23.326;2023-04-15T01:47:07;6.10;;;4.30;;
23658;SDS011;12006;42.666;23.326;2023-04-15T01:49:32;5.90;;;4.00;;
23658;SDS011;12006;42.666;23.326;2023-04-15T01:51:58;4.53;;;3.80;;
23658;SDS011;12006;42.666;23.326;2023-04-15T01:54:23;5.07;;;3.67;;
23658;SDS011;12006;42.666;23.326;2023-04-15T01:56:48;4.87;;;4.03;;
23658;SDS011;12006;42.666;23.326;2023-04-15T01:59:14;6.87;;;5.17;;
23658;SDS011;12006;42.666;23.326;2023-04-15T02:01:40;7.73;;;5.10;;
23658;SDS011;12006;42.666;23.326;2023-04-15T02:04:06;5.60;;;4.13;;
23658;SDS011;12006;42.666;23.326;2023-04-15T02:06:32;5.73;;;4.07;;
23658;SDS011;12006;42.666;23.326;2023-04-15T02:08:57;4.70;;;4.20;;
23658;SDS011;12006;42.666;23.326;2023-04-15T02:11:23;5.57;;;3.97;;
23658;SDS011;12006;42.666;23.326;2023-04-15T02:13:48;6.13;;;4.53;;
23658;SDS011;12006;42.666;23.326;2023-04-15T02:16:17;5.27;;;4.03;;
23658;SDS011;12006;42.666;23.326;2023-04-15T02:18:44;7.00;;;3.83;;
23658;SDS011;12006;42.666;23.326;2023-04-15T02:21:12;5.63;;;4.37;;
23658;SDS011;12006;42.666;23.326;2023-04-15T02:23:37;5.57;;;4.00;;
23658;SDS011;12006;42.666;23.326;2023-04-15T02:26:03;6.30;;;4.37;;
23658;SDS011;12006;42.666;23.326;2023-04-15T02:28:28;5.57;;;4.80;;
23658;SDS011;12006;42.666;23.326;2023-04-15T02:30:53;5.83;;;4.13;;
23658;SDS011;12006;42.666;23.326;2023-04-15T02:33:21;5.50;;;4.30;;
23658;SDS011;12006;42.666;23.326;2023-04-15T02:35:47;7.07;;;4.40;;
23658;SDS011;12006;42.666;23.326;2023-04-15T02:38:12;7.60;;;4.37;;
23658;SDS011;12006;42.666;23.326;2023-04-15T02:40:40;7.10;;;4.17;;
23658;SDS011;12006;42.666;23.326;2023-04-15T02:43:06;5.67;;;3.80;;
23658;SDS011;12006;42.666;23.326;2023-04-15T02:45:31;5.30;;;4.07;;
23658;SDS011;12006;42.666;23.326;2023-04-15T02:47:57;5.80;;;3.73;;
23658;SDS011;12006;42.666;23.326;2023-04-15T02:50:22;7.30;;;4.60;;
23658;SDS011;12006;42.666;23.326;2023-04-15T02:52:49;5.20;;;4.27;;
23658;SDS011;12006;42.666;23.326;2023-04-15T02:55:14;5.60;;;4.13;;
23658;SDS011;12006;42.666;23.326;2023-04-15T02:57:41;5.37;;;4.30;;
23658;SDS011;12006;42.666;23.326;2023-04-15T03:00:07;5.80;;;4.80;;
23658;SDS011;12006;42.666;23.326;2023-04-15T03:02:36;8.00;;;5.50;;
23658;SDS011;12006;42.666;23.326;2023-04-15T03:05:03;8.03;;;5.70;;
23658;SDS011;12006;42.666;23.326;2023-04-15T03:07:29;8.03;;;5.80;;
23658;SDS011;12006;42.666;23.326;2023-04-15T03:09:55;8.10;;;6.10;;
23658;SDS011;12006;42.666;23.326;2023-04-15T03:12:21;8.13;;;6.37;;
23658;SDS011;12006;42.666;23.326;2023-04-15T03:14:46;6.63;;;5.70;;
23658;SDS011;12006;42.666;23.326;2023-04-15T03:17:11;10.17;;;6.30;;
23658;SDS011;12006;42.666;23.326;2023-04-15T03:19:37;11.13;;;6.43;;
23658;SDS011;12006;42.666;23.326;2023-04-15T03:22:02;8.47;;;6.20;;
23658;SDS011;12006;42.666;23.326;2023-04-15T03:24:28;7.77;;;5.90;;
23658;SDS011;12006;42.666;23.326;2023-04-15T03:26:54;7.87;;;5.90;;
23658;SDS011;12006;42.666;23.326;2023-04-15T03:29:20;9.40;;;5.97;;
23658;SDS011;12006;42.666;23.326;2023-04-15T03:31:45;9.47;;;5.90;;
23658;SDS011;12006;42.666;23.326;2023-04-15T03:34:11;7.73;;;5.77;;
23658;SDS011;12006;42.666;23.326;2023-04-15T03:36:36;6.80;;;5.20;;
23658;SDS011;12006;42.666;23.326;2023-04-15T03:39:02;6.50;;;5.53;;
23658;SDS011;12006;42.666;23.326;2023-04-15T03:41:28;9.07;;;5.03;;
23658;SDS011;12006;42.666;23.326;2023-04-15T03:43:53;5.40;;;4.50;;
23658;SDS011;12006;42.666;23.326;2023-04-15T03:46:19;6.50;;;5.67;;
23658;SDS011;12006;42.666;23.326;2023-04-15T03:48:45;6.93;;;5.03;;
23658;SDS011;12006;42.666;23.326;2023-04-15T03:51:11;7.20;;;5.30;;
23658;SDS011;12006;42.666;23.326;2023-04-15T03:53:37;7.63;;;5.07;;
23658;SDS011;12006;42.666;23.326;2023-04-15T03:56:02;6.73;;;5.63;;
23658;SDS011;12006;42.666;23.326;2023-04-15T03:58:27;8.80;;;6.37;;
23658;SDS011;12006;42.666;23.326;2023-04-15T04:00:53;7.90;;;6.53;;
23658;SDS011;12006;42.666;23.326;2023-04-15T04:03:19;8.40;;;7.23;;
23658;SDS011;12006;42.666;23.326;2023-04-15T04:05:44;11.97;;;6.97;;
23658;SDS011;12006;42.666;23.326;2023-04-15T04:08:10;10.87;;;7.33;;
23658;SDS011;12006;42.666;23.326;2023-04-15T04:10:37;12.13;;;8.30;;
23658;SDS011;12006;42.666;23.326;2023-04-15T04:13:03;10.43;;;8.03;;
23658;SDS011;12006;42.666;23.326;2023-04-15T04:15:29;11.70;;;7.40;;
23658;SDS011;12006;42.666;23.326;2023-04-15T04:17:54;9.87;;;7.60;;
23658;SDS011;12006;42.666;23.326;2023-04-15T04:20:20;9.90;;;7.30;;
23658;SDS011;12006;42.666;23.326;2023-04-15T04:22:45;9.90;;;6.80;;
23658;SDS011;12006;42.666;23.326;2023-04-15T04:25:11;12.07;;;8.07;;
23658;SDS011;12006;42.666;23.326;2023-04-15T04:27:36;8.63;;;6.57;;
23658;SDS011;12006;42.666;23.326;2023-04-15T04:30:02;8.17;;;6.23;;
23658;SDS011;12006;42.666;23.326;2023-04-15T04:32:27;8.77;;;6.37;;
23658;SDS011;12006;42.666;23.326;2023-04-15T04:34:53;8.47;;;6.07;;
23658;SDS011;12006;42.666;23.326;2023-04-15T04:37:18;7.20;;;5.93;;
23658;SDS011;12006;42.666;23.326;2023-04-15T04:39:44;7.87;;;6.17;;
23658;SDS011;12006;42.666;23.326;2023-04-15T04:42:09;7.37;;;6.07;;
23658;SDS011;12006;42.666;23.326;2023-04-15T04:44:35;7.83;;;5.63;;
23658;SDS011;12006;42.666;23.326;2023-04-15T04:47:00;6.87;;;6.17;;
23658;SDS011;12006;42.666;23.326;2023-04-15T04:49:25;8.07;;;6.70;;
23658;SDS011;12006;42.666;23.326;2023-04-15T04:51:51;8.83;;;7.20;;
23658;SDS011;12006;42.666;23.326;2023-04-15T04:54:16;8.07;;;6.93;;
23658;SDS011;12006;42.666;23.326;2023-04-15T04:56:42;8.80;;;6.77;;
23658;SDS011;12006;42.666;23.326;2023-04-15T04:59:07;7.70;;;6.43;;
23658;SDS011;12006;42.666;23.326;2023-04-15T05:01:33;10.87;;;6.33;;
23658;SDS011;12006;42.666;23.326;2023-04-15T05:03:58;7.93;;;6.50;;
23658;SDS011;12006;42.666;23.326;2023-04-15T05:06:24;8.10;;;6.53;;
23658;SDS011;12006;42.666;23.326;2023-04-15T05:08:50;7.67;;;6.80;;
23658;SDS011;12006;42.666;23.326;2023-04-15T05:11:15;8.60;;;6.97;;
23658;SDS011;12006;42.666;23.326;2023-04-15T05:13:41;8.83;;;6.57;;
23658;SDS011;12006;42.666;23.326;2023-04-15T05:16:06;9.33;;;6.63;;
23658;SDS011;12006;42.666;23.326;2023-04-15T05:18:32;9.13;;;6.90;;
23658;SDS011;12006;42.666;23.326;2023-04-15T05:20:57;7.83;;;6.00;;
23658;SDS011;12006;42.666;23.326;2023-04-15T05:23:23;7.27;;;6.23;;
23658;SDS011;12006;42.666;23.326;2023-04-15T05:25:49;7.53;;;5.93;;
23658;SDS011;12006;42.666;23.326;2023-04-15T05:28:14;7.20;;;5.37;;
23658;SDS011;12006;42.666;23.326;2023-04-15T05:30:40;8.07;;;5.70;;
23658;SDS011;12006;42.666;23.326;2023-04-15T05:33:06;6.07;;;5.30;;
23658;SDS011;12006;42.666;23.326;2023-04-15T05:35:31;6.97;;;5.13;;
23658;SDS011;12006;42.666;23.326;2023-04-15T05:37:56;6.50;;;5.10;;
23658;SDS011;12006;42.666;23.326;2023-04-15T05:40:22;6.07;;;4.93;;
23658;SDS011;12006;42.666;23.326;2023-04-15T05:42:48;7.20;;;6.13;;
23658;SDS011;12006;42.666;23.326;2023-04-15T05:45:13;6.40;;;5.70;;
23658;SDS011;12006;42.666;23.326;2023-04-15T05:47:39;8.03;;;5.33;;
23658;SDS011;12006;42.666;23.326;2023-04-15T05:50:04;7.87;;;5.67;;
23658;SDS011;12006;42.666;23.326;2023-04-15T05:52:30;6.67;;;5.27;;
23658;SDS011;12006;42.666;23.326;2023-04-15T05:54:56;7.80;;;5.07;;
23658;SDS011;12006;42.666;23.326;2023-04-15T05:57:22;7.83;;;4.90;;
23658;SDS011;12006;42.666;23.326;2023-04-15T05:59:47;7.53;;;5.73;;
23658;SDS011;12006;42.666;23.326;2023-04-15T06:02:13;7.50;;;5.73;;
23658;SDS011;12006;42.666;23.326;2023-04-15T06:04:38;7.47;;;5.40;;
23658;SDS011;12006;42.666;23.326;2023-04-15T06:07:04;7.33;;;5.23;;
23658;SDS011;12006;42.666;23.326;2023-04-15T06:09:29;9.17;;;5.57;;
23658;SDS011;12006;42.666;23.326;2023-04-15T06:11:55;6.83;;;5.00;;
23658;SDS011;12006;42.666;23.326;2023-04-15T06:14:21;6.50;;;4.97;;
23658;SDS011;12006;42.666;23.326;2023-04-15T06:16:47;5.63;;;5.03;;
23658;SDS011;12006;42.666;23.326;2023-04-15T06:19:12;5.90;;;5.30;;
23658;SDS011;12006;42.666;23.326;2023-04-15T06:21:38;6.33;;;5.07;;
23658;SDS011;12006;42.666;23.326;2023-04-15T06:24:04;6.83;;;4.83;;
23658;SDS011;12006;42.666;23.326;2023-04-15T06:26:30;5.47;;;4.67;;
23658;SDS011;12006;42.666;23.326;2023-04-15T06:28:55;7.20;;;4.77;;
23658;SDS011;12006;42.666;23.326;2023-04-15T06:31:21;5.37;;;4.03;;
23658;SDS011;12006;42.666;23.326;2023-04-15T06:33:46;5.13;;;4.40;;
23658;SDS011;12006;42.666;23.326;2023-04-15T06:36:12;7.23;;;4.70;;
23658;SDS011;12006;42.666;23.326;2023-04-15T06:38:37;8.87;;;4.77;;
23658;SDS011;12006;42.666;23.326;2023-04-15T06:41:03;5.93;;;4.50;;
23658;SDS011;12006;42.666;23.326;2023-04-15T06:43:28;6.60;;;5.20;;
23658;SDS011;12006;42.666;23.326;2023-04-15T06:45:54;6.00;;;4.53;;
23658;SDS011;12006;42.666;23.326;2023-04-15T06:48:20;8.20;;;4.63;;
23658;SDS011;12006;42.666;23.326;2023-04-15T06:50:46;6.00;;;4.53;;
23658;SDS011;12006;42.666;23.326;2023-04-15T06:53:13;5.60;;;4.57;;
23658;SDS011;12006;42.666;23.326;2023-04-15T06:55:38;6.87;;;4.73;;
23658;SDS011;12006;42.666;23.326;2023-04-15T06:58:04;5.13;;;4.63;;
23658;SDS011;12006;42.666;23.326;2023-04-15T07:00:29;7.43;;;4.43;;
23658;SDS011;12006;42.666;23.326;2023-04-15T07:02:55;5.30;;;4.80;;
23658;SDS011;12006;42.666;23.326;2023-04-15T07:05:21;5.63;;;4.13;;
23658;SDS011;12006;42.666;23.326;2023-04-15T07:07:46;6.77;;;4.77;;
23658;SDS011;12006;42.666;23.326;2023-04-15T07:10:12;6.17;;;4.63;;
23658;SDS011;12006;42.666;23.326;2023-04-15T07:12:38;4.80;;;4.33;;
23658;SDS011;12006;42.666;23.326;2023-04-15T07:15:04;6.77;;;5.10;;
23658;SDS011;12006;42.666;23.326;2023-04-15T07:17:30;7.67;;;5.33;;
23658;SDS011;12006;42.666;23.326;2023-04-15T07:19:56;8.70;;;4.90;;
23658;SDS011;12006;42.666;23.326;2023-04-15T07:22:21;6.50;;;4.77;;
23658;SDS011;12006;42.666;23.326;2023-04-15T07:24:47;5.90;;;3.70;;
23658;SDS011;12006;42.666;23.326;2023-04-15T07:27:12;5.33;;;4.23;;
23658;SDS011;12006;42.666;23.326;2023-04-15T07:29:37;8.10;;;4.80;;
23658;SDS011;12006;42.666;23.326;2023-04-15T07:32:03;5.40;;;4.00;;
23658;SDS011;12006;42.666;23.326;2023-04-15T07:34:28;6.93;;;4.50;;
23658;SDS011;12006;42.666;23.326;2023-04-15T07:36:54;5.73;;;4.00;;
23658;SDS011;12006;42.666;23.326;2023-04-15T07:39:19;5.87;;;4.40;;
23658;SDS011;12006;42.666;23.326;2023-04-15T07:41:45;5.03;;;3.93;;
23658;SDS011;12006;42.666;23.326;2023-04-15T07:44:10;4.47;;;4.03;;
23658;SDS011;12006;42.666;23.326;2023-04-15T07:46:36;5.63;;;3.90;;
23658;SDS011;12006;42.666;23.326;2023-04-15T07:49:02;4.27;;;3.83;;
23658;SDS011;12006;42.666;23.326;2023-04-15T07:51:27;5.03;;;3.80;;
23658;SDS011;12006;42.666;23.326;2023-04-15T07:53:53;5.33;;;3.77;;
23658;SDS011;12006;42.666;23.326;2023-04-15T07:56:19;4.60;;;3.90;;
23658;SDS011;12006;42.666;23.326;2023-04-15T07:58:44;6.30;;;3.80;;
23658;SDS011;12006;42.666;23.326;2023-04-15T08:01:10;7.53;;;3.77;;
23658;SDS011;12006;42.666;23.326;2023-04-15T08:03:35;5.30;;;3.67;;
23658;SDS011;12006;42.666;23.326;2023-04-15T08:06:01;5.70;;;3.63;;
23658;SDS011;12006;42.666;23.326;2023-04-15T08:08:27;4.27;;;3.50;;
23658;SDS011;12006;42.666;23.326;2023-04-15T08:10:52;5.23;;;3.50;;
23658;SDS011;12006;42.666;23.326;2023-04-15T08:13:17;3.97;;;3.03;;
23658;SDS011;12006;42.666;23.326;2023-04-15T08:15:43;4.73;;;3.30;;
23658;SDS011;12006;42.666;23.326;2023-04-15T08:18:08;4.43;;;2.77;;
23658;SDS011;12006;42.666;23.326;2023-04-15T08:20:34;3.10;;;2.43;;
23658;SDS011;12006;42.666;23.326;2023-04-15T08:23:00;3.60;;;2.47;;
23658;SDS011;12006;42.666;23.326;2023-04-15T08:25:25;4.40;;;2.93;;
23658;SDS011;12006;42.666;23.326;2023-04-15T08:27:54;2.27;;;1.93;;
23658;SDS011;12006;42.666;23.326;2023-04-15T08:30:19;2.93;;;1.90;;
23658;SDS011;12006;42.666;23.326;2023-04-15T08:32:45;2.73;;;1.87;;
23658;SDS011;12006;42.666;23.326;2023-04-15T08:35:11;3.93;;;2.87;;
23658;SDS011;12006;42.666;23.326;2023-04-15T08:37:37;4.45;;;3.00;;
23658;SDS011;12006;42.666;23.326;2023-04-15T08:40:02;3.60;;;2.90;;
23658;SDS011;12006;42.666;23.326;2023-04-15T08:42:34;5.22;;;3.33;;
23658;SDS011;12006;42.666;23.326;2023-04-15T08:45:02;3.20;;;2.40;;
23658;SDS011;12006;42.666;23.326;2023-04-15T08:47:29;1.98;;;1.88;;
23658;SDS011;12006;42.666;23.326;2023-04-15T08:49:58;2.88;;;2.35;;
23658;SDS011;12006;42.666;23.326;2023-04-15T08:52:25;4.47;;;2.22;;
23658;SDS011;12006;42.666;23.326;2023-04-15T08:54:51;3.55;;;2.20;;
23658;SDS011;12006;42.666;23.326;2023-04-15T08:57:25;1.73;;;1.55;;
23658;SDS011;12006;42.666;23.326;2023-04-15T08:59:53;4.28;;;1.73;;
23658;SDS011;12006;42.666;23.326;2023-04-15T09:02:20;2.38;;;1.70;;
23658;SDS011;12006;42.666;23.326;2023-04-15T09:04:47;3.28;;;1.70;;
23658;SDS011;12006;42.666;23.326;2023-04-15T09:07:12;1.90;;;1.58;;
23658;SDS011;12006;42.666;23.326;2023-04-15T09:09:37;3.22;;;2.25;;
23658;SDS011;12006;42.666;23.326;2023-04-15T09:12:04;3.30;;;2.83;;
23658;SDS011;12006;42.666;23.326;2023-04-15T09:14:29;3.25;;;2.45;;
23658;SDS011;12006;42.666;23.326;2023-04-15T09:16:58;4.68;;;2.63;;
23658;SDS011;12006;42.666;23.326;2023-04-15T09:19:24;2.72;;;2.10;;
23658;SDS011;12006;42.666;23.326;2023-04-15T09:21:53;4.57;;;2.22;;
23658;SDS011;12006;42.666;23.326;2023-04-15T09:24:23;5.72;;;2.55;;
23658;SDS011;12006;42.666;23.326;2023-04-15T09:26:53;2.58;;;2.08;;
23658;SDS011;12006;42.666;23.326;2023-04-15T09:29:25;3.40;;;2.03;;
23658;SDS011;12006;42.666;23.326;2023-04-15T09:31:53;3.15;;;2.05;;
23658;SDS011;12006;42.666;23.326;2023-04-15T09:34:18;4.03;;;1.80;;
23658;SDS011;12006;42.666;23.326;2023-04-15T09:39:20;3.22;;;1.50;;
23658;SDS011;12006;42.666;23.326;2023-04-15T09:41:46;2.90;;;1.77;;
23658;SDS011;12006;42.666;23.326;2023-04-15T09:44:27;3.17;;;1.42;;
23658;SDS011;12006;42.666;23.326;2023-04-15T09:46:53;3.08;;;1.63;;
23658;SDS011;12006;42.666;23.326;2023-04-15T09:49:18;3.40;;;1.80;;
23658;SDS011;12006;42.666;23.326;2023-04-15T09:51:44;4.70;;;1.45;;
23658;SDS011;12006;42.666;23.326;2023-04-15T09:54:11;2.42;;;1.63;;
23658;SDS011;12006;42.666;23.326;2023-04-15T09:56:37;3.47;;;1.60;;
23658;SDS011;12006;42.666;23.326;2023-04-15T09:59:06;1.63;;;1.10;;
23658;SDS011;12006;42.666;23.326;2023-04-15T10:01:32;4.05;;;1.10;;
23658;SDS011;12006;42.666;23.326;2023-04-15T10:03:58;3.53;;;0.95;;
23658;SDS011;12006;42.666;23.326;2023-04-15T10:06:27;1.25;;;0.70;;
23658;SDS011;12006;42.666;23.326;2023-04-15T10:08:53;1.20;;;0.60;;
23658;SDS011;12006;42.666;23.326;2023-04-15T10:11:20;1.05;;;0.70;;
23658;SDS011;12006;42.666;23.326;2023-04-15T10:13:48;1.48;;;0.70;;
23658;SDS011;12006;42.666;23.326;2023-04-15T10:16:14;1.05;;;0.55;;
23658;SDS011;12006;42.666;23.326;2023-04-15T10:18:44;1.85;;;0.82;;
23658;SDS011;12006;42.666;23.326;2023-04-15T10:21:11;1.00;;;0.60;;
23658;SDS011;12006;42.666;23.326;2023-04-15T10:23:42;2.15;;;0.60;;
23658;SDS011;12006;42.666;23.326;2023-04-15T10:26:11;1.00;;;0.80;;
23658;SDS011;12006;42.666;23.326;2023-04-15T10:28:39;1.30;;;0.70;;
23658;SDS011;12006;42.666;23.326;2023-04-15T10:31:05;1.63;;;0.80;;
23658;SDS011;12006;42.666;23.326;2023-04-15T10:33:31;1.10;;;0.55;;
23658;SDS011;12006;42.666;23.326;2023-04-15T10:35:58;0.98;;;0.60;;
23658;SDS011;12006;42.666;23.326;2023-04-15T10:38:39;2.00;;;0.80;;
23658;SDS011;12006;42.666;23.326;2023-04-15T10:43:47;1.73;;;0.82;;
23658;SDS011;12006;42.666;23.326;2023-04-15T10:46:20;1.27;;;0.90;;
23658;SDS011;12006;42.666;23.326;2023-04-15T10:48:52;1.42;;;0.80;;
23658;SDS011;12006;42.666;23.326;2023-04-15T10:51:28;1.10;;;0.80;;
23658;SDS011;12006;42.666;23.326;2023-04-15T10:53:55;1.58;;;0.63;;
23658;SDS011;12006;42.666;23.326;2023-04-15T10:56:22;2.17;;;0.80;;
23658;SDS011;12006;42.666;23.326;2023-04-15T10:58:47;1.27;;;0.60;;
23658;SDS011;12006;42.666;23.326;2023-04-15T11:01:13;1.50;;;0.60;;
23658;SDS011;12006;42.666;23.326;2023-04-15T11:03:39;1.60;;;0.70;;
23658;SDS011;12006;42.666;23.326;2023-04-15T11:06:07;1.15;;;0.68;;
23658;SDS011;12006;42.666;23.326;2023-04-15T11:08:52;1.92;;;0.50;;
23658;SDS011;12006;42.666;23.326;2023-04-15T11:11:18;1.40;;;0.63;;
23658;SDS011;12006;42.666;23.326;2023-04-15T11:13:47;1.23;;;0.73;;
23658;SDS011;12006;42.666;23.326;2023-04-15T11:16:13;1.48;;;0.63;;
23658;SDS011;12006;42.666;23.326;2023-04-15T11:18:39;1.95;;;0.60;;
23658;SDS011;12006;42.666;23.326;2023-04-15T11:21:05;1.45;;;0.85;;
23658;SDS011;12006;42.666;23.326;2023-04-15T11:23:41;0.90;;;0.68;;
23658;SDS011;12006;42.666;23.326;2023-04-15T11:26:10;0.93;;;0.73;;
23658;SDS011;12006;42.666;23.326;2023-04-15T11:28:37;2.35;;;0.88;;
23658;SDS011;12006;42.666;23.326;2023-04-15T11:31:07;1.15;;;0.80;;
23658;SDS011;12006;42.666;23.326;2023-04-15T11:33:37;1.35;;;0.70;;
23658;SDS011;12006;42.666;23.326;2023-04-15T11:36:09;3.80;;;0.90;;
23658;SDS011;12006;42.666;23.326;2023-04-15T11:38:35;0.73;;;0.73;;
23658;SDS011;12006;42.666;23.326;2023-04-15T11:41:01;1.75;;;0.90;;
23658;SDS011;12006;42.666;23.326;2023-04-15T11:43:27;2.15;;;0.80;;
23658;SDS011;12006;42.666;23.326;2023-04-15T11:45:56;1.83;;;0.73;;
23658;SDS011;12006;42.666;23.326;2023-04-15T11:48:24;0.80;;;0.75;;
23658;SDS011;12006;42.666;23.326;2023-04-15T11:51:23;1.02;;;0.55;;
23658;SDS011;12006;42.666;23.326;2023-04-15T11:53:49;0.82;;;0.70;;
23658;SDS011;12006;42.666;23.326;2023-04-15T11:56:19;1.88;;;0.70;;
23658;SDS011;12006;42.666;23.326;2023-04-15T11:58:46;1.55;;;0.57;;
23658;SDS011;12006;42.666;23.326;2023-04-15T12:01:14;0.73;;;0.50;;
23658;SDS011;12006;42.666;23.326;2023-04-15T12:03:40;1.40;;;0.65;;
23658;SDS011;12006;42.666;23.326;2023-04-15T12:08:59;0.80;;;0.80;;
23658;SDS011;12006;42.666;23.326;2023-04-15T12:11:33;1.45;;;0.73;;
23658;SDS011;12006;42.666;23.326;2023-04-15T12:16:32;1.33;;;0.60;;
23658;SDS011;12006;42.666;23.326;2023-04-15T12:18:59;0.93;;;0.73;;
23658;SDS011;12006;42.666;23.326;2023-04-15T12:21:33;1.02;;;0.75;;
23658;SDS011;12006;42.666;23.326;2023-04-15T12:24:01;1.52;;;0.90;;
23658;SDS011;12006;42.666;23.326;2023-04-15T12:26:29;1.58;;;0.77;;
23658;SDS011;12006;42.666;23.326;2023-04-15T12:29:01;1.45;;;0.65;;
23658;SDS011;12006;42.666;23.326;2023-04-15T12:31:26;0.80;;;0.60;;
23658;SDS011;12006;42.666;23.326;2023-04-15T12:33:55;1.70;;;0.70;;
23658;SDS011;12006;42.666;23.326;2023-04-15T12:36:22;3.22;;;0.55;;
23658;SDS011;12006;42.666;23.326;2023-04-15T12:38:48;1.58;;;0.80;;
23658;SDS011;12006;42.666;23.326;2023-04-15T12:41:13;0.75;;;0.75;;
23658;SDS011;12006;42.666;23.326;2023-04-15T12:43:39;2.47;;;0.88;;
23658;SDS011;12006;42.666;23.326;2023-04-15T12:46:04;2.75;;;0.93;;
23658;SDS011;12006;42.666;23.326;2023-04-15T12:48:30;1.90;;;0.90;;
23658;SDS011;12006;42.666;23.326;2023-04-15T12:50:57;1.73;;;0.60;;
23658;SDS011;12006;42.666;23.326;2023-04-15T12:53:22;1.40;;;0.90;;
23658;SDS011;12006;42.666;23.326;2023-04-15T12:55:47;1.38;;;0.90;;
23658;SDS011;12006;42.666;23.326;2023-04-15T12:58:13;1.10;;;0.73;;
23658;SDS011;12006;42.666;23.326;2023-04-15T13:00:38;0.93;;;0.60;;
23658;SDS011;12006;42.666;23.326;2023-04-15T13:03:04;1.08;;;0.95;;
23658;SDS011;12006;42.666;23.326;2023-04-15T13:05:29;0.80;;;0.80;;
23658;SDS011;12006;42.666;23.326;2023-04-15T13:07:55;2.50;;;0.70;;
23658;SDS011;12006;42.666;23.326;2023-04-15T13:10:20;0.70;;;0.60;;
23658;SDS011;12006;42.666;23.326;2023-04-15T13:12:47;0.80;;;0.57;;
23658;SDS011;12006;42.666;23.326;2023-04-15T13:15:16;1.98;;;0.65;;
23658;SDS011;12006;42.666;23.326;2023-04-15T13:17:44;1.25;;;0.75;;
23658;SDS011;12006;42.666;23.326;2023-04-15T13:20:10;1.05;;;0.70;;
23658;SDS011;12006;42.666;23.326;2023-04-15T13:22:36;1.15;;;0.63;;
23658;SDS011;12006;42.666;23.326;2023-04-15T13:25:01;0.82;;;0.77;;
23658;SDS011;12006;42.666;23.326;2023-04-15T13:27:27;1.27;;;0.95;;
23658;SDS011;12006;42.666;23.326;2023-04-15T13:29:53;1.30;;;0.60;;
23658;SDS011;12006;42.666;23.326;2023-04-15T13:32:18;1.70;;;0.73;;
23658;SDS011;12006;42.666;23.326;2023-04-15T13:34:43;1.08;;;0.50;;
23658;SDS011;12006;42.666;23.326;2023-04-15T13:37:09;1.05;;;0.80;;
23658;SDS011;12006;42.666;23.326;2023-04-15T13:39:34;1.13;;;0.70;;
23658;SDS011;12006;42.666;23.326;2023-04-15T13:42:00;1.02;;;0.80;;
23658;SDS011;12006;42.666;23.326;2023-04-15T13:44:26;1.30;;;0.80;;
23658;SDS011;12006;42.666;23.326;2023-04-15T13:46:52;1.33;;;0.77;;
23658;SDS011;12006;42.666;23.326;2023-04-15T13:49:17;0.65;;;0.63;;
23658;SDS011;12006;42.666;23.326;2023-04-15T13:51:42;1.20;;;0.77;;
23658;SDS011;12006;42.666;23.326;2023-04-15T13:54:08;1.15;;;0.50;;
23658;SDS011;12006;42.666;23.326;2023-04-15T13:56:33;0.75;;;0.55;;
23658;SDS011;12006;42.666;23.326;2023-04-15T13:58:59;1.45;;;0.70;;
23658;SDS011;12006;42.666;23.326;2023-04-15T14:01:26;1.45;;;0.55;;
23658;SDS011;12006;42.666;23.326;2023-04-15T14:03:52;1.55;;;0.73;;
23658;SDS011;12006;42.666;23.326;2023-04-15T14:06:17;0.60;;;0.60;;
23658;SDS011;12006;42.666;23.326;2023-04-15T14:08:43;1.30;;;0.65;;
23658;SDS011;12006;42.666;23.326;2023-04-15T14:11:08;0.80;;;0.60;;
23658;SDS011;12006;42.666;23.326;2023-04-15T14:13:34;1.88;;;0.73;;
23658;SDS011;12006;42.666;23.326;2023-04-15T14:16:00;0.90;;;0.60;;
23658;SDS011;12006;42.666;23.326;2023-04-15T14:18:25;1.63;;;0.65;;
23658;SDS011;12006;42.666;23.326;2023-04-15T14:20:51;1.50;;;0.68;;
23658;SDS011;12006;42.666;23.326;2023-04-15T14:23:16;1.67;;;0.90;;
23658;SDS011;12006;42.666;23.326;2023-04-15T14:25:42;1.48;;;0.57;;
23658;SDS011;12006;42.666;23.326;2023-04-15T14:28:07;1.60;;;0.60;;
23658;SDS011;12006;42.666;23.326;2023-04-15T14:30:33;1.45;;;0.60;;
23658;SDS011;12006;42.666;23.326;2023-04-15T14:32:58;0.70;;;0.70;;
23658;SDS011;12006;42.666;23.326;2023-04-15T14:35:24;1.38;;;0.73;;
23658;SDS011;12006;42.666;23.326;2023-04-15T14:37:54;2.17;;;0.70;;
23658;SDS011;12006;42.666;23.326;2023-04-15T14:40:20;2.20;;;0.73;;